Tipton, Iowa
Current Conditions -  °F | °C
As of 3:52 AM on Thursday 29 Jan 2015 (Local Time) from KIOW Reporting Station
Haze Haze  
Wind Chill: 24°   Ceiling: 700
Heat Index: 34°   Visibility: 4mi
Dew Point: 32°   Wind: 16mph
Humidity: 92%   Direction: 310°NW
Pressure: 29.84"   Gusts: 24mph
Location:  41.77°N, 91.13°W
Report Text: KIOW 290952Z AUTO 31014G21KT 4SM BR OVC007 01/00 A2984 RMK AO2 SLP110 T00110000
Loading
Personal Weather Stations






























Interactive Weather Map New forecast layout! Learn more

10-Day Weather Forecast

Advertisements
Track Severe Weather on mobile